sensor_id;sensor_type;location;lat;lon;timestamp;P1;durP1;ratioP1;P2;durP2;ratioP2
50367;SDS011;36281;34.132;-118.018;2023-10-13T00:01:15;9.30;;;3.90;;
50367;SDS011;36281;34.132;-118.018;2023-10-13T00:03:45;7.55;;;4.47;;
50367;SDS011;36281;34.132;-118.018;2023-10-13T00:06:14;9.70;;;4.05;;
50367;SDS011;36281;34.132;-118.018;2023-10-13T00:08:44;8.73;;;3.95;;
50367;SDS011;36281;34.132;-118.018;2023-10-13T00:11:15;9.20;;;3.85;;
50367;SDS011;36281;34.132;-118.018;2023-10-13T00:13:46;7.70;;;3.47;;
50367;SDS011;36281;34.132;-118.018;2023-10-13T00:16:18;9.10;;;3.78;;
50367;SDS011;36281;34.132;-118.018;2023-10-13T00:18:58;11.38;;;3.88;;
50367;SDS011;36281;34.132;-118.018;2023-10-13T00:21:28;8.15;;;3.53;;
50367;SDS011;36281;34.132;-118.018;2023-10-13T00:24:00;11.48;;;3.92;;
50367;SDS011;36281;34.132;-118.018;2023-10-13T00:26:35;12.23;;;3.63;;
50367;SDS011;36281;34.132;-118.018;2023-10-13T00:29:04;9.95;;;3.75;;
50367;SDS011;36281;34.132;-118.018;2023-10-13T00:31:44;9.95;;;3.72;;
50367;SDS011;36281;34.132;-118.018;2023-10-13T00:34:16;10.90;;;4.03;;
50367;SDS011;36281;34.132;-118.018;2023-10-13T00:37:00;8.43;;;4.03;;
50367;SDS011;36281;34.132;-118.018;2023-10-13T00:42:16;11.10;;;3.97;;
50367;SDS011;36281;34.132;-118.018;2023-10-13T00:44:53;6.78;;;3.70;;
50367;SDS011;36281;34.132;-118.018;2023-10-13T00:47:22;11.88;;;4.13;;
50367;SDS011;36281;34.132;-118.018;2023-10-13T00:50:05;7.47;;;3.92;;
50367;SDS011;36281;34.132;-118.018;2023-10-13T00:52:42;10.90;;;4.13;;
50367;SDS011;36281;34.132;-118.018;2023-10-13T00:55:14;10.27;;;4.07;;
50367;SDS011;36281;34.132;-118.018;2023-10-13T00:57:47;9.05;;;4.18;;
50367;SDS011;36281;34.132;-118.018;2023-10-13T01:00:21;11.45;;;4.22;;
50367;SDS011;36281;34.132;-118.018;2023-10-13T01:02:56;8.48;;;3.88;;
50367;SDS011;36281;34.132;-118.018;2023-10-13T01:05:33;8.60;;;4.60;;
50367;SDS011;36281;34.132;-118.018;2023-10-13T01:08:05;11.35;;;4.35;;
50367;SDS011;36281;34.132;-118.018;2023-10-13T01:10:39;8.98;;;4.40;;
50367;SDS011;36281;34.132;-118.018;2023-10-13T01:13:11;9.23;;;4.00;;
50367;SDS011;36281;34.132;-118.018;2023-10-13T01:15:40;9.30;;;4.75;;
50367;SDS011;36281;34.132;-118.018;2023-10-13T01:18:09;10.82;;;4.43;;
50367;SDS011;36281;34.132;-118.018;2023-10-13T01:20:44;12.85;;;4.70;;
50367;SDS011;36281;34.132;-118.018;2023-10-13T01:23:21;10.30;;;4.70;;
50367;SDS011;36281;34.132;-118.018;2023-10-13T01:25:53;10.48;;;4.47;;
50367;SDS011;36281;34.132;-118.018;2023-10-13T01:28:24;12.82;;;4.43;;
50367;SDS011;36281;34.132;-118.018;2023-10-13T01:30:53;10.18;;;4.35;;
50367;SDS011;36281;34.132;-118.018;2023-10-13T01:33:22;12.25;;;4.40;;
50367;SDS011;36281;34.132;-118.018;2023-10-13T01:35:55;12.70;;;4.95;;
50367;SDS011;36281;34.132;-118.018;2023-10-13T01:38:28;11.13;;;4.70;;
50367;SDS011;36281;34.132;-118.018;2023-10-13T01:41:00;11.13;;;4.75;;
50367;SDS011;36281;34.132;-118.018;2023-10-13T01:43:32;11.27;;;4.50;;
50367;SDS011;36281;34.132;-118.018;2023-10-13T01:46:02;9.52;;;4.65;;
50367;SDS011;36281;34.132;-118.018;2023-10-13T01:48:32;10.52;;;4.55;;
50367;SDS011;36281;34.132;-118.018;2023-10-13T01:51:06;11.07;;;4.72;;
50367;SDS011;36281;34.132;-118.018;2023-10-13T01:53:40;14.55;;;4.43;;
50367;SDS011;36281;34.132;-118.018;2023-10-13T01:56:09;10.77;;;4.78;;
50367;SDS011;36281;34.132;-118.018;2023-10-13T01:58:39;11.07;;;4.28;;
50367;SDS011;36281;34.132;-118.018;2023-10-13T02:01:15;9.32;;;4.60;;
50367;SDS011;36281;34.132;-118.018;2023-10-13T02:03:55;9.88;;;4.10;;
50367;SDS011;36281;34.132;-118.018;2023-10-13T02:06:31;12.30;;;4.50;;
50367;SDS011;36281;34.132;-118.018;2023-10-13T02:09:03;11.50;;;4.40;;
50367;SDS011;36281;34.132;-118.018;2023-10-13T02:11:38;11.23;;;4.95;;
50367;SDS011;36281;34.132;-118.018;2023-10-13T02:14:08;8.18;;;4.20;;
50367;SDS011;36281;34.132;-118.018;2023-10-13T02:16:40;11.60;;;4.55;;
50367;SDS011;36281;34.132;-118.018;2023-10-13T02:19:09;9.88;;;4.68;;
50367;SDS011;36281;34.132;-118.018;2023-10-13T02:21:43;9.50;;;4.28;;
50367;SDS011;36281;34.132;-118.018;2023-10-13T02:24:14;10.27;;;4.65;;
50367;SDS011;36281;34.132;-118.018;2023-10-13T02:26:46;9.32;;;4.55;;
50367;SDS011;36281;34.132;-118.018;2023-10-13T02:29:15;13.27;;;4.93;;
50367;SDS011;36281;34.132;-118.018;2023-10-13T02:31:46;10.55;;;4.63;;
50367;SDS011;36281;34.132;-118.018;2023-10-13T02:34:22;9.80;;;4.68;;
50367;SDS011;36281;34.132;-118.018;2023-10-13T02:36:51;11.23;;;4.32;;
50367;SDS011;36281;34.132;-118.018;2023-10-13T02:39:23;10.70;;;4.65;;
50367;SDS011;36281;34.132;-118.018;2023-10-13T02:41:53;10.57;;;4.68;;
50367;SDS011;36281;34.132;-118.018;2023-10-13T02:44:23;13.38;;;4.80;;
50367;SDS011;36281;34.132;-118.018;2023-10-13T02:46:58;10.60;;;4.47;;
50367;SDS011;36281;34.132;-118.018;2023-10-13T02:49:27;8.73;;;4.43;;
50367;SDS011;36281;34.132;-118.018;2023-10-13T02:52:01;10.73;;;4.60;;
50367;SDS011;36281;34.132;-118.018;2023-10-13T02:54:37;8.73;;;4.38;;
50367;SDS011;36281;34.132;-118.018;2023-10-13T02:57:18;11.65;;;4.25;;
50367;SDS011;36281;34.132;-118.018;2023-10-13T02:59:47;11.52;;;4.55;;
50367;SDS011;36281;34.132;-118.018;2023-10-13T03:02:23;10.25;;;3.95;;
50367;SDS011;36281;34.132;-118.018;2023-10-13T03:04:53;9.10;;;4.35;;
50367;SDS011;36281;34.132;-118.018;2023-10-13T03:07:37;9.02;;;4.57;;
50367;SDS011;36281;34.132;-118.018;2023-10-13T03:10:12;9.93;;;4.38;;
50367;SDS011;36281;34.132;-118.018;2023-10-13T03:12:43;9.55;;;4.18;;
50367;SDS011;36281;34.132;-118.018;2023-10-13T03:15:16;11.73;;;4.20;;
50367;SDS011;36281;34.132;-118.018;2023-10-13T03:17:58;14.93;;;4.80;;
50367;SDS011;36281;34.132;-118.018;2023-10-13T03:20:27;10.38;;;4.45;;
50367;SDS011;36281;34.132;-118.018;2023-10-13T03:22:59;9.40;;;4.20;;
50367;SDS011;36281;34.132;-118.018;2023-10-13T03:25:30;12.57;;;4.55;;
50367;SDS011;36281;34.132;-118.018;2023-10-13T03:31:06;11.03;;;4.47;;
50367;SDS011;36281;34.132;-118.018;2023-10-13T03:33:35;12.77;;;4.70;;
50367;SDS011;36281;34.132;-118.018;2023-10-13T03:36:06;12.63;;;5.05;;
50367;SDS011;36281;34.132;-118.018;2023-10-13T03:38:35;11.95;;;4.60;;
50367;SDS011;36281;34.132;-118.018;2023-10-13T03:41:05;9.38;;;4.40;;
50367;SDS011;36281;34.132;-118.018;2023-10-13T03:43:35;10.98;;;4.60;;
50367;SDS011;36281;34.132;-118.018;2023-10-13T03:46:13;9.25;;;4.28;;
50367;SDS011;36281;34.132;-118.018;2023-10-13T03:48:42;6.72;;;4.22;;
50367;SDS011;36281;34.132;-118.018;2023-10-13T03:51:22;8.70;;;4.28;;
50367;SDS011;36281;34.132;-118.018;2023-10-13T03:53:58;13.38;;;4.60;;
50367;SDS011;36281;34.132;-118.018;2023-10-13T03:56:36;11.38;;;4.55;;
50367;SDS011;36281;34.132;-118.018;2023-10-13T03:59:08;14.15;;;4.85;;
50367;SDS011;36281;34.132;-118.018;2023-10-13T04:01:46;11.70;;;5.22;;
50367;SDS011;36281;34.132;-118.018;2023-10-13T04:04:19;14.07;;;5.10;;
50367;SDS011;36281;34.132;-118.018;2023-10-13T04:06:57;8.90;;;4.60;;
50367;SDS011;36281;34.132;-118.018;2023-10-13T04:09:35;9.40;;;4.57;;
50367;SDS011;36281;34.132;-118.018;2023-10-13T04:12:07;11.18;;;4.40;;
50367;SDS011;36281;34.132;-118.018;2023-10-13T04:14:39;12.35;;;4.45;;
50367;SDS011;36281;34.132;-118.018;2023-10-13T04:17:27;13.07;;;3.75;;
50367;SDS011;36281;34.132;-118.018;2023-10-13T04:19:58;9.30;;;4.80;;
50367;SDS011;36281;34.132;-118.018;2023-10-13T04:22:33;8.25;;;4.32;;
50367;SDS011;36281;34.132;-118.018;2023-10-13T04:25:17;9.80;;;4.18;;
50367;SDS011;36281;34.132;-118.018;2023-10-13T04:28:08;9.95;;;4.15;;
50367;SDS011;36281;34.132;-118.018;2023-10-13T04:30:42;9.00;;;4.38;;
50367;SDS011;36281;34.132;-118.018;2023-10-13T04:33:26;8.88;;;4.00;;
50367;SDS011;36281;34.132;-118.018;2023-10-13T04:36:02;12.98;;;4.60;;
50367;SDS011;36281;34.132;-118.018;2023-10-13T04:38:43;12.80;;;4.53;;
50367;SDS011;36281;34.132;-118.018;2023-10-13T04:41:31;9.57;;;4.30;;
50367;SDS011;36281;34.132;-118.018;2023-10-13T04:44:17;12.48;;;5.10;;
50367;SDS011;36281;34.132;-118.018;2023-10-13T04:47:04;11.63;;;5.00;;
50367;SDS011;36281;34.132;-118.018;2023-10-13T04:49:38;9.15;;;4.47;;
50367;SDS011;36281;34.132;-118.018;2023-10-13T04:52:11;12.02;;;4.75;;
50367;SDS011;36281;34.132;-118.018;2023-10-13T04:54:54;9.93;;;4.80;;
50367;SDS011;36281;34.132;-118.018;2023-10-13T04:57:27;10.90;;;5.20;;
50367;SDS011;36281;34.132;-118.018;2023-10-13T05:00:19;14.45;;;5.32;;
50367;SDS011;36281;34.132;-118.018;2023-10-13T05:02:48;8.77;;;4.55;;
50367;SDS011;36281;34.132;-118.018;2023-10-13T05:05:43;9.82;;;4.82;;
50367;SDS011;36281;34.132;-118.018;2023-10-13T05:08:42;12.38;;;4.82;;
50367;SDS011;36281;34.132;-118.018;2023-10-13T05:11:29;11.93;;;4.95;;
50367;SDS011;36281;34.132;-118.018;2023-10-13T05:14:36;9.40;;;4.93;;
50367;SDS011;36281;34.132;-118.018;2023-10-13T05:17:26;11.95;;;4.80;;
50367;SDS011;36281;34.132;-118.018;2023-10-13T05:20:13;10.05;;;5.00;;
50367;SDS011;36281;34.132;-118.018;2023-10-13T05:23:01;18.13;;;5.15;;
50367;SDS011;36281;34.132;-118.018;2023-10-13T05:25:48;14.68;;;4.80;;
50367;SDS011;36281;34.132;-118.018;2023-10-13T05:28:35;8.40;;;4.45;;
50367;SDS011;36281;34.132;-118.018;2023-10-13T05:31:23;11.77;;;5.32;;
50367;SDS011;36281;34.132;-118.018;2023-10-13T05:34:12;14.88;;;5.35;;
50367;SDS011;36281;34.132;-118.018;2023-10-13T05:36:59;13.25;;;4.80;;
50367;SDS011;36281;34.132;-118.018;2023-10-13T05:39:46;11.77;;;4.75;;
50367;SDS011;36281;34.132;-118.018;2023-10-13T05:42:33;12.25;;;5.40;;
50367;SDS011;36281;34.132;-118.018;2023-10-13T05:45:21;14.18;;;5.85;;
50367;SDS011;36281;34.132;-118.018;2023-10-13T05:48:08;11.38;;;5.40;;
50367;SDS011;36281;34.132;-118.018;2023-10-13T05:50:41;12.15;;;5.13;;
50367;SDS011;36281;34.132;-118.018;2023-10-13T05:53:45;11.63;;;5.50;;
50367;SDS011;36281;34.132;-118.018;2023-10-13T05:56:33;10.70;;;5.13;;
50367;SDS011;36281;34.132;-118.018;2023-10-13T05:59:20;14.13;;;5.85;;
50367;SDS011;36281;34.132;-118.018;2023-10-13T06:02:08;9.23;;;5.07;;
50367;SDS011;36281;34.132;-118.018;2023-10-13T06:04:55;16.52;;;5.88;;
50367;SDS011;36281;34.132;-118.018;2023-10-13T06:07:45;12.43;;;5.18;;
50367;SDS011;36281;34.132;-118.018;2023-10-13T06:10:32;13.52;;;5.63;;
50367;SDS011;36281;34.132;-118.018;2023-10-13T06:13:19;14.70;;;5.82;;
50367;SDS011;36281;34.132;-118.018;2023-10-13T06:16:07;10.13;;;4.50;;
50367;SDS011;36281;34.132;-118.018;2023-10-13T06:18:55;13.73;;;5.00;;
50367;SDS011;36281;34.132;-118.018;2023-10-13T06:21:42;12.10;;;5.28;;
50367;SDS011;36281;34.132;-118.018;2023-10-13T06:24:31;13.63;;;5.45;;
50367;SDS011;36281;34.132;-118.018;2023-10-13T06:27:19;11.02;;;5.50;;
50367;SDS011;36281;34.132;-118.018;2023-10-13T06:30:06;15.35;;;5.60;;
50367;SDS011;36281;34.132;-118.018;2023-10-13T06:32:36;12.73;;;5.82;;
50367;SDS011;36281;34.132;-118.018;2023-10-13T06:35:07;11.02;;;5.50;;
50367;SDS011;36281;34.132;-118.018;2023-10-13T06:37:46;11.93;;;5.45;;
50367;SDS011;36281;34.132;-118.018;2023-10-13T06:40:17;12.63;;;5.28;;
50367;SDS011;36281;34.132;-118.018;2023-10-13T06:42:49;15.60;;;6.18;;
50367;SDS011;36281;34.132;-118.018;2023-10-13T06:45:18;12.57;;;5.70;;
50367;SDS011;36281;34.132;-118.018;2023-10-13T06:47:49;13.80;;;6.10;;
50367;SDS011;36281;34.132;-118.018;2023-10-13T06:50:21;11.50;;;5.78;;
50367;SDS011;36281;34.132;-118.018;2023-10-13T06:52:52;12.90;;;5.80;;
50367;SDS011;36281;34.132;-118.018;2023-10-13T06:55:24;11.00;;;5.75;;
50367;SDS011;36281;34.132;-118.018;2023-10-13T06:57:55;13.15;;;5.97;;
50367;SDS011;36281;34.132;-118.018;2023-10-13T07:00:30;15.57;;;6.00;;
50367;SDS011;36281;34.132;-118.018;2023-10-13T07:03:20;15.38;;;5.63;;
50367;SDS011;36281;34.132;-118.018;2023-10-13T07:05:50;12.50;;;5.32;;
50367;SDS011;36281;34.132;-118.018;2023-10-13T07:08:20;10.82;;;5.68;;
50367;SDS011;36281;34.132;-118.018;2023-10-13T07:10:51;11.93;;;5.32;;
50367;SDS011;36281;34.132;-118.018;2023-10-13T07:13:30;9.05;;;5.30;;
50367;SDS011;36281;34.132;-118.018;2023-10-13T07:16:05;10.50;;;5.30;;
50367;SDS011;36281;34.132;-118.018;2023-10-13T07:18:55;11.90;;;5.40;;
50367;SDS011;36281;34.132;-118.018;2023-10-13T07:21:33;14.50;;;5.70;;
50367;SDS011;36281;34.132;-118.018;2023-10-13T07:24:02;14.65;;;6.05;;
50367;SDS011;36281;34.132;-118.018;2023-10-13T07:26:40;13.02;;;5.75;;
50367;SDS011;36281;34.132;-118.018;2023-10-13T07:29:14;10.60;;;5.60;;
50367;SDS011;36281;34.132;-118.018;2023-10-13T07:31:43;9.90;;;5.32;;
50367;SDS011;36281;34.132;-118.018;2023-10-13T07:34:13;14.02;;;5.55;;
50367;SDS011;36281;34.132;-118.018;2023-10-13T07:36:54;12.80;;;5.43;;
50367;SDS011;36281;34.132;-118.018;2023-10-13T07:39:29;9.60;;;5.25;;
50367;SDS011;36281;34.132;-118.018;2023-10-13T07:42:04;11.50;;;5.88;;
50367;SDS011;36281;34.132;-118.018;2023-10-13T07:44:36;14.90;;;5.55;;
50367;SDS011;36281;34.132;-118.018;2023-10-13T07:47:14;10.30;;;4.78;;
50367;SDS011;36281;34.132;-118.018;2023-10-13T07:49:45;16.05;;;5.78;;
50367;SDS011;36281;34.132;-118.018;2023-10-13T07:52:18;11.40;;;5.20;;
50367;SDS011;36281;34.132;-118.018;2023-10-13T07:54:49;12.73;;;5.40;;
50367;SDS011;36281;34.132;-118.018;2023-10-13T07:57:41;11.63;;;5.28;;
50367;SDS011;36281;34.132;-118.018;2023-10-13T08:00:23;13.18;;;5.40;;
50367;SDS011;36281;34.132;-118.018;2023-10-13T08:03:06;12.02;;;5.65;;
50367;SDS011;36281;34.132;-118.018;2023-10-13T08:05:45;10.68;;;5.35;;
50367;SDS011;36281;34.132;-118.018;2023-10-13T08:08:26;10.32;;;6.18;;
50367;SDS011;36281;34.132;-118.018;2023-10-13T08:11:05;14.63;;;5.63;;
50367;SDS011;36281;34.132;-118.018;2023-10-13T08:13:54;13.60;;;5.93;;
50367;SDS011;36281;34.132;-118.018;2023-10-13T08:16:39;11.93;;;6.30;;
50367;SDS011;36281;34.132;-118.018;2023-10-13T08:19:14;11.30;;;5.90;;
50367;SDS011;36281;34.132;-118.018;2023-10-13T08:21:44;11.43;;;5.97;;
50367;SDS011;36281;34.132;-118.018;2023-10-13T08:24:19;10.68;;;5.82;;
50367;SDS011;36281;34.132;-118.018;2023-10-13T08:27:07;13.55;;;5.68;;
50367;SDS011;36281;34.132;-118.018;2023-10-13T08:29:46;12.75;;;6.43;;
50367;SDS011;36281;34.132;-118.018;2023-10-13T08:32:24;16.55;;;6.10;;
50367;SDS011;36281;34.132;-118.018;2023-10-13T08:34:57;10.45;;;5.63;;
50367;SDS011;36281;34.132;-118.018;2023-10-13T08:37:27;11.13;;;5.82;;
50367;SDS011;36281;34.132;-118.018;2023-10-13T08:40:00;14.85;;;6.00;;
50367;SDS011;36281;34.132;-118.018;2023-10-13T08:42:49;14.20;;;5.85;;
50367;SDS011;36281;34.132;-118.018;2023-10-13T08:45:38;12.73;;;6.07;;
50367;SDS011;36281;34.132;-118.018;2023-10-13T08:48:09;12.00;;;5.65;;
50367;SDS011;36281;34.132;-118.018;2023-10-13T08:50:42;9.30;;;5.60;;
50367;SDS011;36281;34.132;-118.018;2023-10-13T08:53:18;10.45;;;5.55;;
50367;SDS011;36281;34.132;-118.018;2023-10-13T08:56:00;12.93;;;6.07;;
50367;SDS011;36281;34.132;-118.018;2023-10-13T08:58:42;11.15;;;5.57;;
50367;SDS011;36281;34.132;-118.018;2023-10-13T09:01:24;10.25;;;5.50;;
50367;SDS011;36281;34.132;-118.018;2023-10-13T09:04:07;12.82;;;6.15;;
50367;SDS011;36281;34.132;-118.018;2023-10-13T09:06:48;12.25;;;6.10;;
50367;SDS011;36281;34.132;-118.018;2023-10-13T09:09:27;14.73;;;6.05;;
50367;SDS011;36281;34.132;-118.018;2023-10-13T09:12:10;12.25;;;6.10;;
50367;SDS011;36281;34.132;-118.018;2023-10-13T09:14:40;13.27;;;6.30;;
50367;SDS011;36281;34.132;-118.018;2023-10-13T09:17:14;14.48;;;5.75;;
50367;SDS011;36281;34.132;-118.018;2023-10-13T09:19:47;12.30;;;5.53;;
50367;SDS011;36281;34.132;-118.018;2023-10-13T09:22:20;10.45;;;6.00;;
50367;SDS011;36281;34.132;-118.018;2023-10-13T09:24:55;13.43;;;5.90;;
50367;SDS011;36281;34.132;-118.018;2023-10-13T09:27:29;11.80;;;6.25;;
50367;SDS011;36281;34.132;-118.018;2023-10-13T09:30:00;12.63;;;6.38;;
50367;SDS011;36281;34.132;-118.018;2023-10-13T09:33:01;17.35;;;7.10;;
50367;SDS011;36281;34.132;-118.018;2023-10-13T09:35:36;10.27;;;6.28;;
50367;SDS011;36281;34.132;-118.018;2023-10-13T09:38:07;13.00;;;6.40;;
50367;SDS011;36281;34.132;-118.018;2023-10-13T09:40:39;11.30;;;6.45;;
50367;SDS011;36281;34.132;-118.018;2023-10-13T09:43:14;11.57;;;6.28;;
50367;SDS011;36281;34.132;-118.018;2023-10-13T09:45:46;14.25;;;6.68;;
50367;SDS011;36281;34.132;-118.018;2023-10-13T09:48:47;12.45;;;6.57;;
50367;SDS011;36281;34.132;-118.018;2023-10-13T09:51:32;11.23;;;6.28;;
50367;SDS011;36281;34.132;-118.018;2023-10-13T09:54:03;15.68;;;6.63;;
50367;SDS011;36281;34.132;-118.018;2023-10-13T09:56:57;14.07;;;6.18;;
50367;SDS011;36281;34.132;-118.018;2023-10-13T09:59:32;10.25;;;5.57;;
50367;SDS011;36281;34.132;-118.018;2023-10-13T10:02:08;17.25;;;6.95;;
50367;SDS011;36281;34.132;-118.018;2023-10-13T10:04:52;12.60;;;5.80;;
50367;SDS011;36281;34.132;-118.018;2023-10-13T10:07:26;11.85;;;6.03;;
50367;SDS011;36281;34.132;-118.018;2023-10-13T10:09:56;12.23;;;6.10;;
50367;SDS011;36281;34.132;-118.018;2023-10-13T10:12:32;9.48;;;5.57;;
50367;SDS011;36281;34.132;-118.018;2023-10-13T10:15:23;10.73;;;5.75;;
50367;SDS011;36281;34.132;-118.018;2023-10-13T10:18:01;15.73;;;6.25;;
50367;SDS011;36281;34.132;-118.018;2023-10-13T10:20:33;11.52;;;6.13;;
50367;SDS011;36281;34.132;-118.018;2023-10-13T10:23:23;11.77;;;6.53;;
50367;SDS011;36281;34.132;-118.018;2023-10-13T10:25:53;13.65;;;6.55;;
50367;SDS011;36281;34.132;-118.018;2023-10-13T10:28:42;12.00;;;6.45;;
50367;SDS011;36281;34.132;-118.018;2023-10-13T10:31:12;13.38;;;6.50;;
50367;SDS011;36281;34.132;-118.018;2023-10-13T10:33:47;13.23;;;6.20;;
50367;SDS011;36281;34.132;-118.018;2023-10-13T10:36:29;11.15;;;6.30;;
50367;SDS011;36281;34.132;-118.018;2023-10-13T10:38:59;13.40;;;6.40;;
50367;SDS011;36281;34.132;-118.018;2023-10-13T10:41:28;11.38;;;5.80;;
50367;SDS011;36281;34.132;-118.018;2023-10-13T10:44:19;10.85;;;6.60;;
50367;SDS011;36281;34.132;-118.018;2023-10-13T10:47:10;13.40;;;6.25;;
50367;SDS011;36281;34.132;-118.018;2023-10-13T10:50:00;11.50;;;5.82;;
50367;SDS011;36281;34.132;-118.018;2023-10-13T10:52:50;12.02;;;5.65;;
50367;SDS011;36281;34.132;-118.018;2023-10-13T10:55:25;12.25;;;6.25;;
50367;SDS011;36281;34.132;-118.018;2023-10-13T10:57:59;11.15;;;6.22;;
50367;SDS011;36281;34.132;-118.018;2023-10-13T11:00:50;14.35;;;6.45;;
50367;SDS011;36281;34.132;-118.018;2023-10-13T11:03:29;10.60;;;6.15;;
50367;SDS011;36281;34.132;-118.018;2023-10-13T11:05:58;12.98;;;6.32;;
50367;SDS011;36281;34.132;-118.018;2023-10-13T11:08:29;12.98;;;6.10;;
50367;SDS011;36281;34.132;-118.018;2023-10-13T11:11:01;12.63;;;6.20;;
50367;SDS011;36281;34.132;-118.018;2023-10-13T11:13:40;13.55;;;6.35;;
50367;SDS011;36281;34.132;-118.018;2023-10-13T11:16:21;12.73;;;6.07;;
50367;SDS011;36281;34.132;-118.018;2023-10-13T11:19:02;10.27;;;5.80;;
50367;SDS011;36281;34.132;-118.018;2023-10-13T11:21:32;10.88;;;5.70;;
50367;SDS011;36281;34.132;-118.018;2023-10-13T11:24:07;8.93;;;5.32;;
50367;SDS011;36281;34.132;-118.018;2023-10-13T11:26:39;10.98;;;5.72;;
50367;SDS011;36281;34.132;-118.018;2023-10-13T11:29:18;10.65;;;5.65;;
50367;SDS011;36281;34.132;-118.018;2023-10-13T11:31:48;8.45;;;5.50;;
50367;SDS011;36281;34.132;-118.018;2023-10-13T11:34:26;10.30;;;5.45;;
50367;SDS011;36281;34.132;-118.018;2023-10-13T11:37:07;10.75;;;5.70;;
50367;SDS011;36281;34.132;-118.018;2023-10-13T11:40:04;10.90;;;5.70;;
50367;SDS011;36281;34.132;-118.018;2023-10-13T11:42:43;11.70;;;5.20;;
50367;SDS011;36281;34.132;-118.018;2023-10-13T11:45:14;10.82;;;5.53;;
50367;SDS011;36281;34.132;-118.018;2023-10-13T11:48:04;13.70;;;5.70;;
50367;SDS011;36281;34.132;-118.018;2023-10-13T11:50:41;11.55;;;5.80;;
50367;SDS011;36281;34.132;-118.018;2023-10-13T11:53:13;13.80;;;5.95;;
50367;SDS011;36281;34.132;-118.018;2023-10-13T11:55:44;13.07;;;5.38;;
50367;SDS011;36281;34.132;-118.018;2023-10-13T11:58:13;9.32;;;5.70;;
50367;SDS011;36281;34.132;-118.018;2023-10-13T12:00:45;9.18;;;5.30;;
50367;SDS011;36281;34.132;-118.018;2023-10-13T12:03:36;8.85;;;5.03;;
50367;SDS011;36281;34.132;-118.018;2023-10-13T12:06:23;11.57;;;5.20;;
50367;SDS011;36281;34.132;-118.018;2023-10-13T12:09:05;7.53;;;5.53;;
50367;SDS011;36281;34.132;-118.018;2023-10-13T12:11:43;12.68;;;5.03;;
50367;SDS011;36281;34.132;-118.018;2023-10-13T12:14:13;10.90;;;4.88;;
50367;SDS011;36281;34.132;-118.018;2023-10-13T12:16:47;10.63;;;5.40;;
50367;SDS011;36281;34.132;-118.018;2023-10-13T12:19:18;9.77;;;4.90;;
50367;SDS011;36281;34.132;-118.018;2023-10-13T12:21:52;8.98;;;5.10;;
50367;SDS011;36281;34.132;-118.018;2023-10-13T12:24:26;11.23;;;4.80;;
50367;SDS011;36281;34.132;-118.018;2023-10-13T12:27:20;7.50;;;4.75;;
50367;SDS011;36281;34.132;-118.018;2023-10-13T12:30:03;11.15;;;4.80;;
50367;SDS011;36281;34.132;-118.018;2023-10-13T12:32:35;9.35;;;5.07;;
50367;SDS011;36281;34.132;-118.018;2023-10-13T12:35:05;7.90;;;4.60;;
50367;SDS011;36281;34.132;-118.018;2023-10-13T12:37:34;9.95;;;4.65;;
50367;SDS011;36281;34.132;-118.018;2023-10-13T12:40:12;12.88;;;5.00;;
50367;SDS011;36281;34.132;-118.018;2023-10-13T12:43:03;14.50;;;5.32;;
50367;SDS011;36281;34.132;-118.018;2023-10-13T12:45:51;10.27;;;4.88;;
50367;SDS011;36281;34.132;-118.018;2023-10-13T12:48:59;7.18;;;4.45;;
50367;SDS011;36281;34.132;-118.018;2023-10-13T12:52:03;9.32;;;4.90;;
50367;SDS011;36281;34.132;-118.018;2023-10-13T12:54:43;8.35;;;4.50;;
50367;SDS011;36281;34.132;-118.018;2023-10-13T12:57:34;8.30;;;4.55;;
50367;SDS011;36281;34.132;-118.018;2023-10-13T13:00:13;10.43;;;5.03;;
50367;SDS011;36281;34.132;-118.018;2023-10-13T13:02:49;9.77;;;4.90;;
50367;SDS011;36281;34.132;-118.018;2023-10-13T13:05:20;10.80;;;4.53;;
50367;SDS011;36281;34.132;-118.018;2023-10-13T13:07:56;12.10;;;4.88;;
50367;SDS011;36281;34.132;-118.018;2023-10-13T13:10:25;9.98;;;5.70;;
50367;SDS011;36281;34.132;-118.018;2023-10-13T13:13:03;7.90;;;4.80;;
50367;SDS011;36281;34.132;-118.018;2023-10-13T13:15:34;7.78;;;4.22;;
50367;SDS011;36281;34.132;-118.018;2023-10-13T13:18:04;11.63;;;5.20;;
50367;SDS011;36281;34.132;-118.018;2023-10-13T13:20:39;7.93;;;4.50;;
50367;SDS011;36281;34.132;-118.018;2023-10-13T13:23:21;8.65;;;5.00;;
50367;SDS011;36281;34.132;-118.018;2023-10-13T13:25:59;10.32;;;5.15;;
50367;SDS011;36281;34.132;-118.018;2023-10-13T13:28:28;12.80;;;4.90;;
50367;SDS011;36281;34.132;-118.018;2023-10-13T13:30:59;11.63;;;5.97;;
50367;SDS011;36281;34.132;-118.018;2023-10-13T13:33:28;15.35;;;5.20;;
50367;SDS011;36281;34.132;-118.018;2023-10-13T13:36:00;13.38;;;5.72;;
50367;SDS011;36281;34.132;-118.018;2023-10-13T13:38:32;11.68;;;5.38;;
50367;SDS011;36281;34.132;-118.018;2023-10-13T13:41:01;10.57;;;5.38;;
50367;SDS011;36281;34.132;-118.018;2023-10-13T13:43:31;13.70;;;5.82;;
50367;SDS011;36281;34.132;-118.018;2023-10-13T13:46:08;12.35;;;5.85;;
50367;SDS011;36281;34.132;-118.018;2023-10-13T13:48:37;16.05;;;6.03;;
50367;SDS011;36281;34.132;-118.018;2023-10-13T13:51:08;10.52;;;5.55;;
50367;SDS011;36281;34.132;-118.018;2023-10-13T13:53:47;10.75;;;5.53;;
50367;SDS011;36281;34.132;-118.018;2023-10-13T13:56:16;11.70;;;5.88;;
50367;SDS011;36281;34.132;-118.018;2023-10-13T13:58:46;11.25;;;5.70;;
50367;SDS011;36281;34.132;-118.018;2023-10-13T14:01:17;10.68;;;5.65;;
50367;SDS011;36281;34.132;-118.018;2023-10-13T14:03:47;12.40;;;5.80;;
50367;SDS011;36281;34.132;-118.018;2023-10-13T14:06:20;11.63;;;5.35;;
50367;SDS011;36281;34.132;-118.018;2023-10-13T14:08:57;12.52;;;5.88;;
50367;SDS011;36281;34.132;-118.018;2023-10-13T14:11:45;10.90;;;5.47;;
50367;SDS011;36281;34.132;-118.018;2023-10-13T14:14:32;12.00;;;6.03;;
50367;SDS011;36281;34.132;-118.018;2023-10-13T14:17:03;13.07;;;5.78;;
50367;SDS011;36281;34.132;-118.018;2023-10-13T14:19:35;14.55;;;6.38;;
50367;SDS011;36281;34.132;-118.018;2023-10-13T14:22:13;12.10;;;6.22;;
50367;SDS011;36281;34.132;-118.018;2023-10-13T14:24:42;11.75;;;6.65;;
50367;SDS011;36281;34.132;-118.018;2023-10-13T14:27:15;10.48;;;5.85;;
50367;SDS011;36281;34.132;-118.018;2023-10-13T14:29:47;12.43;;;6.00;;
50367;SDS011;36281;34.132;-118.018;2023-10-13T14:32:22;11.32;;;6.18;;
50367;SDS011;36281;34.132;-118.018;2023-10-13T14:34:55;12.43;;;6.03;;
50367;SDS011;36281;34.132;-118.018;2023-10-13T14:37:24;9.60;;;5.90;;
50367;SDS011;36281;34.132;-118.018;2023-10-13T14:39:58;12.60;;;6.10;;
50367;SDS011;36281;34.132;-118.018;2023-10-13T14:42:28;13.70;;;7.00;;
50367;SDS011;36281;34.132;-118.018;2023-10-13T14:45:03;12.35;;;6.00;;
50367;SDS011;36281;34.132;-118.018;2023-10-13T14:47:42;14.57;;;6.65;;
50367;SDS011;36281;34.132;-118.018;2023-10-13T14:50:11;17.23;;;6.75;;
50367;SDS011;36281;34.132;-118.018;2023-10-13T14:52:47;11.88;;;6.43;;
50367;SDS011;36281;34.132;-118.018;2023-10-13T14:55:17;11.25;;;5.93;;
50367;SDS011;36281;34.132;-118.018;2023-10-13T14:57:58;13.73;;;6.93;;
50367;SDS011;36281;34.132;-118.018;2023-10-13T15:00:27;10.73;;;6.05;;